KMPV/MPV METAR and TAF weather

Enter ICAO airport designator
Station Type Date Time Source
KMPV METAR 2022/01/29 09:51 UTC NOAA

KMPV 290951Z AUTO 33006KT 10SM BKN042 OVC110 M17/M22 A3005 RMK AO2 SLP205 T11671217


Station Type Date Time Source
KMPV Decoded METAR 2022/01/29 09:51 UTC NOAA

KNAPP STATE AIRPORT, VT, United States (KMPV) 44-12N 072-34W 343M
Jan 29, 2022 - 04:51 AM EST / 2022.01.29 0951 UTC
Wind: from the NNW (330 degrees) at 7 MPH (6 KT):0
Visibility: 10 mile(s):0
Sky conditions: overcast
Temperature: 1.9 F (-16.7 C)
Windchill: -11 F (-24 C):2
Dew Point: -7.1 F (-21.7 C)
Relative Humidity: 65%
Pressure (altimeter): 30.05 in. Hg (1017 hPa)
ob: KMPV 290951Z AUTO 33006KT 10SM BKN042 OVC110 M17/M22 A3005 RMK AO2 SLP205 T11671217
cycle: 10

Station Type Date Time Source
KMPV TAF 2022/01/29 06:40 UTC NOAA

TAF KMPV 290538Z 2906/3006 33006KT P6SM OVC050
FM291400 35009KT P6SM OVC070 WS020/05035KT
FM291900 34014G24KT 4SM -SN BR OVC060 WS020/04040KT
FM300000 32014G23KT P6SM OVC100 WS020/35045KT
FM300500 32013G20KT P6SM OVC250 WS020/34045KT

Example: see airport list